createdAt,value
2019-06-07T00:00:37.303Z,0.00
2019-06-07T00:01:20.762Z,0.00
2019-06-07T00:02:16.834Z,0.00
2019-06-07T00:03:27.426Z,0.00
2019-06-07T00:04:21.310Z,0.00
2019-06-07T00:05:19.597Z,0.00
2019-06-07T00:06:24.370Z,0.00
2019-06-07T00:07:21.448Z,0.00
2019-06-07T00:08:24.880Z,0.00
2019-06-07T00:09:22.107Z,0.00
2019-06-07T00:10:35.260Z,0.00
2019-06-07T00:11:20.462Z,0.00
2019-06-07T00:12:17.656Z,0.00
2019-06-07T00:13:19.837Z,0.00
2019-06-07T00:14:18.837Z,0.00
2019-06-07T00:15:26.894Z,0.00
2019-06-07T00:16:22.802Z,0.00
2019-06-07T00:17:20.106Z,0.00
2019-06-07T00:18:25.326Z,0.00
2019-06-07T00:19:18.958Z,0.00
2019-06-07T00:20:22.620Z,0.00
2019-06-07T00:21:20.150Z,0.00
2019-06-07T00:22:29.649Z,0.00
2019-06-07T00:23:20.687Z,0.00
2019-06-07T00:24:18.716Z,0.00
2019-06-07T00:25:22.843Z,0.00
2019-06-07T00:26:21.138Z,0.00
2019-06-07T00:27:18.300Z,0.00
2019-06-07T00:28:17.377Z,0.00
2019-06-07T00:29:18.538Z,0.00
2019-06-07T00:30:40.114Z,0.00
2019-06-07T00:31:22.359Z,0.00
2019-06-07T00:32:19.984Z,0.00
2019-06-07T00:33:19.251Z,0.00
2019-06-07T00:34:20.039Z,0.00
2019-06-07T00:35:20.612Z,0.00
2019-06-07T00:36:18.237Z,0.00
2019-06-07T00:37:19.356Z,0.00
2019-06-07T00:38:18.964Z,0.00
2019-06-07T00:39:21.897Z,0.00
2019-06-07T00:40:27.130Z,0.00
2019-06-07T00:41:20.213Z,0.00
2019-06-07T00:42:17.482Z,0.00
2019-06-07T00:43:17.598Z,0.00
2019-06-07T00:44:19.909Z,0.00
2019-06-07T00:45:21.093Z,0.00
2019-06-07T00:46:18.139Z,0.00
2019-06-07T00:47:18.735Z,0.00
2019-06-07T00:48:27.467Z,0.00
2019-06-07T00:49:32.349Z,0.00
2019-06-07T00:50:21.919Z,0.00
2019-06-07T00:51:18.977Z,0.00
2019-06-07T00:52:58.580Z,0.00
2019-06-07T00:53:22.695Z,0.00
2019-06-07T00:54:19.822Z,0.00
2019-06-07T00:55:18.135Z,0.00
2019-06-07T00:56:16.357Z,0.00
2019-06-07T00:57:16.742Z,0.00
2019-06-07T00:58:17.964Z,0.00
2019-06-07T00:59:19.140Z,0.00
2019-06-07T01:00:21.890Z,0.00
2019-06-07T01:01:20.099Z,0.00
2019-06-07T01:02:18.209Z,0.00
2019-06-07T01:03:17.449Z,0.00
2019-06-07T01:04:19.379Z,0.00
2019-06-07T01:05:20.373Z,0.00
2019-06-07T01:06:22.639Z,0.00
2019-06-07T01:07:18.748Z,0.00
2019-06-07T01:08:21.519Z,0.00
2019-06-07T01:09:17.775Z,0.00
2019-06-07T01:10:17.346Z,0.00
2019-06-07T01:11:20.612Z,0.00
2019-06-07T01:12:19.442Z,0.00
2019-06-07T01:13:17.209Z,0.00
2019-06-07T01:14:20.316Z,0.00
2019-06-07T01:15:20.507Z,0.00
2019-06-07T01:16:18.771Z,0.00
2019-06-07T01:17:30.364Z,0.00
2019-06-07T01:18:38.183Z,0.00
2019-06-07T01:19:18.751Z,0.00
2019-06-07T01:20:16.711Z,0.00
2019-06-07T01:21:19.922Z,0.00
2019-06-07T01:22:18.402Z,0.00
2019-06-07T01:23:57.873Z,0.00
2019-06-07T01:24:17.586Z,0.00
2019-06-07T01:25:15.920Z,0.00
2019-06-07T01:26:18.938Z,0.00
2019-06-07T01:27:17.078Z,0.00
2019-06-07T01:28:16.666Z,0.00
2019-06-07T01:29:17.730Z,0.00
2019-06-07T01:30:16.215Z,0.00
2019-06-07T01:31:17.728Z,0.00
2019-06-07T01:32:17.479Z,0.00
2019-06-07T01:33:15.967Z,0.00
2019-06-07T01:34:16.122Z,0.00
2019-06-07T01:35:16.595Z,0.00
2019-06-07T01:36:17.885Z,0.00
2019-06-07T01:37:16.851Z,0.00
2019-06-07T01:38:17.229Z,0.00
2019-06-07T01:39:18.458Z,0.00
2019-06-07T01:40:17.229Z,0.00
2019-06-07T01:41:17.385Z,0.00
2019-06-07T01:42:18.167Z,0.00
2019-06-07T01:43:17.009Z,0.00
2019-06-07T01:44:17.670Z,0.00
2019-06-07T01:45:18.047Z,0.00
2019-06-07T01:46:15.844Z,0.00
2019-06-07T01:47:17.693Z,0.00
2019-06-07T01:48:20.729Z,0.00
2019-06-07T01:49:15.713Z,0.00
2019-06-07T01:50:17.064Z,0.00
2019-06-07T01:51:15.718Z,0.00
2019-06-07T01:52:16.620Z,0.00
2019-06-07T01:53:15.595Z,0.00
2019-06-07T01:55:18.649Z,0.00
2019-06-07T01:56:18.409Z,0.00
2019-06-07T01:57:31.034Z,0.00
2019-06-07T01:58:17.051Z,0.00
2019-06-07T01:59:15.548Z,0.00
2019-06-07T02:00:15.668Z,0.00
2019-06-07T02:01:15.557Z,0.00
2019-06-07T02:02:15.484Z,0.00
2019-06-07T02:03:15.477Z,0.00
2019-06-07T02:04:15.720Z,0.00
2019-06-07T02:05:15.469Z,0.00
2019-06-07T02:06:15.967Z,0.00
2019-06-07T02:07:15.445Z,0.00
2019-06-07T02:08:15.439Z,0.00
2019-06-07T02:09:15.427Z,0.00
2019-06-07T02:10:15.464Z,0.00
2019-06-07T02:11:20.926Z,0.00
2019-06-07T02:12:25.533Z,0.00
2019-06-07T02:13:16.375Z,0.00
2019-06-07T02:14:15.379Z,0.00
2019-06-07T02:15:15.398Z,0.00
2019-06-07T02:16:15.345Z,0.00
2019-06-07T02:17:15.542Z,0.00
2019-06-07T02:18:15.344Z,0.00
2019-06-07T02:19:15.318Z,0.00
2019-06-07T02:20:16.651Z,0.00
2019-06-07T02:21:15.405Z,0.00
2019-06-07T02:22:15.274Z,0.00
2019-06-07T02:23:15.316Z,0.00
2019-06-07T02:24:15.386Z,0.00
2019-06-07T02:26:16.246Z,0.00
2019-06-07T02:27:15.246Z,0.00
2019-06-07T02:28:29.896Z,0.00
2019-06-07T02:29:16.228Z,0.00
2019-06-07T02:31:18.091Z,0.00
2019-06-07T02:32:15.178Z,0.00
2019-06-07T02:33:15.390Z,0.00
2019-06-07T02:34:15.179Z,0.00
2019-06-07T02:35:15.200Z,0.00
2019-06-07T02:36:15.189Z,0.00
2019-06-07T02:37:15.173Z,0.00
2019-06-07T02:38:15.297Z,0.00
2019-06-07T02:39:15.946Z,0.00
2019-06-07T02:40:15.075Z,0.00
2019-06-07T02:41:15.076Z,0.00
2019-06-07T02:42:15.071Z,0.00
2019-06-07T02:43:15.232Z,0.00
2019-06-07T02:44:15.317Z,0.00
2019-06-07T02:45:15.056Z,0.00
2019-06-07T02:46:26.542Z,0.00
2019-06-07T02:47:15.996Z,0.00
2019-06-07T02:48:24.500Z,0.00
2019-06-07T02:49:16.715Z,0.00
2019-06-07T02:50:16.179Z,0.00
2019-06-07T02:51:15.149Z,0.00
2019-06-07T02:52:15.111Z,0.00
2019-06-07T02:53:15.091Z,0.00
2019-06-07T02:54:15.043Z,0.00
2019-06-07T02:55:15.218Z,0.00
2019-06-07T02:57:16.014Z,0.00
2019-06-07T02:58:14.971Z,0.00
2019-06-07T02:59:14.900Z,0.00
2019-06-07T03:00:41.328Z,0.00
2019-06-07T03:01:16.060Z,0.00
2019-06-07T03:02:15.090Z,0.00
2019-06-07T03:03:15.008Z,0.00
2019-06-07T03:04:14.944Z,5.62
2019-06-07T03:05:14.837Z,5.62
2019-06-07T03:06:15.001Z,5.62
2019-06-07T03:07:15.079Z,5.62
2019-06-07T03:08:14.873Z,5.62
2019-06-07T03:09:14.875Z,5.62
2019-06-07T03:10:14.789Z,5.62
2019-06-07T03:11:14.812Z,11.25
2019-06-07T03:12:14.770Z,11.25
2019-06-07T03:13:14.821Z,11.25
2019-06-07T03:14:14.797Z,11.25
2019-06-07T03:15:32.134Z,11.25
2019-06-07T03:16:15.755Z,16.88
2019-06-07T03:17:14.946Z,16.88
2019-06-07T03:18:14.734Z,16.88
2019-06-07T03:19:14.706Z,16.88
2019-06-07T03:20:15.548Z,16.88
2019-06-07T03:21:15.558Z,22.50
2019-06-07T03:22:14.718Z,22.50
2019-06-07T03:23:14.730Z,22.50
2019-06-07T03:24:14.698Z,22.50
2019-06-07T03:25:14.699Z,28.12
2019-06-07T03:26:14.656Z,28.12
2019-06-07T03:27:36.083Z,28.12
2019-06-07T03:28:16.502Z,28.12
2019-06-07T03:29:14.592Z,33.75
2019-06-07T03:31:15.613Z,33.75
2019-06-07T03:32:14.570Z,33.75
2019-06-07T03:33:14.784Z,33.75
2019-06-07T03:34:14.563Z,39.38
2019-06-07T03:35:14.670Z,39.38
2019-06-07T03:36:23.987Z,39.38
2019-06-07T03:37:15.508Z,45.00
2019-06-07T03:38:14.554Z,45.00
2019-06-07T03:39:14.563Z,45.00
2019-06-07T03:40:14.498Z,45.00
2019-06-07T03:41:14.483Z,50.62
2019-06-07T03:42:14.441Z,50.62
2019-06-07T03:43:14.458Z,50.62
2019-06-07T03:44:14.472Z,50.62
2019-06-07T03:45:14.770Z,56.25
2019-06-07T03:46:14.513Z,56.25
2019-06-07T03:47:15.409Z,56.25
2019-06-07T03:48:14.492Z,56.25
2019-06-07T03:49:14.373Z,61.88
2019-06-07T03:50:14.384Z,61.88
2019-06-07T03:51:24.511Z,61.88
2019-06-07T03:52:15.337Z,61.88
2019-06-07T03:53:14.478Z,67.50
2019-06-07T03:54:14.411Z,67.50
2019-06-07T03:55:14.388Z,67.50
2019-06-07T03:56:15.241Z,67.50
2019-06-07T03:57:14.334Z,73.12
2019-06-07T03:58:31.944Z,73.12
2019-06-07T03:59:15.433Z,73.12
2019-06-07T04:00:14.348Z,78.75
2019-06-07T04:01:14.222Z,78.75
2019-06-07T04:02:14.500Z,78.75
2019-06-07T04:03:33.067Z,78.75
2019-06-07T04:04:15.233Z,84.38
2019-06-07T04:05:14.214Z,84.38
2019-06-07T04:06:14.234Z,84.38
2019-06-07T04:07:14.183Z,90.00
2019-06-07T04:08:15.123Z,90.00
2019-06-07T04:09:14.141Z,90.00
2019-06-07T04:10:14.241Z,95.62
2019-06-07T04:11:14.217Z,95.62
2019-06-07T04:12:14.113Z,101.25
2019-06-07T04:13:14.155Z,101.25
2019-06-07T04:14:14.124Z,101.25
2019-06-07T04:15:14.095Z,106.88
2019-06-07T04:16:14.233Z,106.88
2019-06-07T04:17:14.187Z,106.88
2019-06-07T04:18:19.760Z,112.50
2019-06-07T04:19:14.165Z,112.50
2019-06-07T04:20:14.074Z,118.12
2019-06-07T04:21:14.003Z,118.12
2019-06-07T04:22:14.079Z,118.12
2019-06-07T04:23:27.630Z,118.12
2019-06-07T04:24:15.007Z,123.75
2019-06-07T04:25:14.082Z,123.75
2019-06-07T04:26:14.047Z,123.75
2019-06-07T04:27:13.969Z,129.38
2019-06-07T04:28:14.003Z,129.38
2019-06-07T04:30:14.998Z,129.38
2019-06-07T04:31:13.965Z,129.38
2019-06-07T04:32:13.979Z,129.38
2019-06-07T04:33:13.964Z,129.38
2019-06-07T04:34:13.953Z,129.38
2019-06-07T04:35:13.964Z,129.38
2019-06-07T04:36:13.915Z,129.38
2019-06-07T04:37:13.843Z,135.00
2019-06-07T04:38:14.098Z,135.00
2019-06-07T04:39:13.877Z,135.00
2019-06-07T04:40:13.985Z,140.62
2019-06-07T04:41:13.859Z,140.62
2019-06-07T04:42:13.930Z,140.62
2019-06-07T04:43:13.814Z,146.25
2019-06-07T04:44:13.813Z,146.25
2019-06-07T04:45:33.113Z,151.88
2019-06-07T04:46:15.060Z,146.25
2019-06-07T04:47:13.748Z,151.88
2019-06-07T04:48:13.754Z,151.88
2019-06-07T04:49:13.737Z,151.88
2019-06-07T04:50:13.724Z,157.50
2019-06-07T04:51:13.808Z,157.50
2019-06-07T04:52:13.673Z,163.12
2019-06-07T04:53:13.828Z,168.75
2019-06-07T04:54:13.704Z,168.75
2019-06-07T04:55:13.823Z,174.38
2019-06-07T04:56:13.671Z,174.38
2019-06-07T04:57:13.608Z,180.00
2019-06-07T04:58:13.641Z,180.00
2019-06-07T04:59:13.591Z,180.00
2019-06-07T05:00:46.625Z,185.62
2019-06-07T05:01:26.794Z,185.62
2019-06-07T05:02:14.600Z,191.25
2019-06-07T05:03:13.582Z,191.25
2019-06-07T05:04:13.710Z,202.50
2019-06-07T05:05:13.612Z,202.50
2019-06-07T05:06:13.608Z,208.12
2019-06-07T05:07:13.560Z,219.38
2019-06-07T05:08:27.621Z,225.00
2019-06-07T05:09:14.525Z,230.62
2019-06-07T05:10:13.464Z,230.62
2019-06-07T05:11:13.541Z,236.25
2019-06-07T05:12:13.525Z,236.25
2019-06-07T05:13:13.474Z,247.50
2019-06-07T05:14:13.480Z,253.12
2019-06-07T05:15:13.499Z,258.75
2019-06-07T05:16:13.436Z,270.00
2019-06-07T05:17:13.557Z,275.62
2019-06-07T05:18:13.409Z,275.62
2019-06-07T05:19:13.420Z,275.62
2019-06-07T05:20:13.430Z,281.25
2019-06-07T05:21:13.373Z,275.62
2019-06-07T05:22:13.437Z,264.38
2019-06-07T05:23:59.400Z,253.12
2019-06-07T05:24:14.334Z,236.25
2019-06-07T05:25:13.428Z,236.25
2019-06-07T05:26:14.485Z,236.25
2019-06-07T05:27:13.387Z,230.62
2019-06-07T05:28:13.365Z,230.62
2019-06-07T05:29:13.318Z,236.25
2019-06-07T05:30:57.732Z,225.00
2019-06-07T05:31:14.325Z,219.38
2019-06-07T05:32:13.308Z,213.75
2019-06-07T05:33:13.422Z,219.38
2019-06-07T05:34:13.376Z,219.38
2019-06-07T05:35:13.265Z,225.00
2019-06-07T05:36:13.242Z,236.25
2019-06-07T05:37:13.196Z,258.75
2019-06-07T05:38:13.293Z,258.75
2019-06-07T05:39:13.202Z,281.25
2019-06-07T05:40:13.186Z,292.50
2019-06-07T05:41:13.184Z,354.38
2019-06-07T05:42:13.342Z,545.62
2019-06-07T05:43:13.223Z,489.38
2019-06-07T05:44:14.980Z,528.75
2019-06-07T05:45:13.153Z,641.25
2019-06-07T05:46:13.150Z,697.50
2019-06-07T05:47:13.079Z,798.75
2019-06-07T05:48:13.344Z,804.38
2019-06-07T05:49:13.343Z,793.12
2019-06-07T05:50:38.659Z,759.38
2019-06-07T05:51:14.105Z,691.88
2019-06-07T05:52:13.087Z,624.38
2019-06-07T05:53:13.016Z,658.12
2019-06-07T05:54:13.929Z,618.75
2019-06-07T05:55:13.027Z,517.50
2019-06-07T05:56:13.398Z,478.12
2019-06-07T05:57:12.965Z,590.62
2019-06-07T05:58:13.083Z,562.50
2019-06-07T05:59:13.361Z,433.12
2019-06-07T06:00:13.339Z,427.50
2019-06-07T06:01:42.361Z,438.75
2019-06-07T06:02:22.169Z,298.12
2019-06-07T06:03:13.878Z,264.38
2019-06-07T06:04:12.848Z,264.38
2019-06-07T06:05:32.749Z,258.75
2019-06-07T06:06:13.936Z,258.75
2019-06-07T06:07:12.849Z,258.75
2019-06-07T06:08:12.955Z,258.75
2019-06-07T06:09:14.120Z,258.75
2019-06-07T06:10:12.821Z,258.75
2019-06-07T06:11:12.782Z,258.75
2019-06-07T06:12:12.771Z,258.75
2019-06-07T06:13:12.803Z,258.75
2019-06-07T06:14:12.779Z,253.12
2019-06-07T06:15:12.742Z,258.75
2019-06-07T06:16:12.746Z,258.75
2019-06-07T06:17:12.722Z,258.75
2019-06-07T06:18:12.690Z,264.38
2019-06-07T06:19:12.723Z,264.38
2019-06-07T06:20:12.702Z,264.38
2019-06-07T06:21:19.191Z,264.38
2019-06-07T06:22:13.682Z,264.38
2019-06-07T06:23:12.650Z,264.38
2019-06-07T06:24:12.632Z,258.75
2019-06-07T06:26:13.680Z,264.38
2019-06-07T06:27:41.374Z,264.38
2019-06-07T06:28:16.219Z,270.00
2019-06-07T06:29:12.601Z,275.62
2019-06-07T06:30:12.560Z,275.62
2019-06-07T06:31:12.834Z,286.88
2019-06-07T06:32:41.212Z,286.88
2019-06-07T06:33:30.485Z,292.50
2019-06-07T06:34:13.542Z,292.50
2019-06-07T06:35:12.532Z,298.12
2019-06-07T06:36:12.503Z,315.00
2019-06-07T06:37:12.637Z,320.62
2019-06-07T06:38:12.917Z,315.00
2019-06-07T06:39:13.309Z,309.38
2019-06-07T06:40:12.452Z,309.38
2019-06-07T06:41:16.323Z,309.38
2019-06-07T06:42:12.484Z,315.00
2019-06-07T06:43:12.488Z,326.25
2019-06-07T06:44:12.423Z,331.88
2019-06-07T06:45:12.436Z,337.50
2019-06-07T06:46:12.400Z,348.75
2019-06-07T06:47:12.412Z,360.00
2019-06-07T06:48:12.419Z,360.00
2019-06-07T06:49:14.717Z,376.88
2019-06-07T06:50:12.603Z,376.88
2019-06-07T06:51:13.007Z,382.50
2019-06-07T06:52:12.324Z,388.12
2019-06-07T06:53:13.500Z,410.62
2019-06-07T06:54:12.310Z,405.00
2019-06-07T06:55:12.304Z,466.88
2019-06-07T06:56:12.278Z,495.00
2019-06-07T06:57:19.536Z,495.00
2019-06-07T06:58:13.294Z,511.88
2019-06-07T06:59:37.467Z,489.38
2019-06-07T07:00:13.230Z,478.12
2019-06-07T07:01:12.249Z,472.50
2019-06-07T07:02:12.224Z,483.75
2019-06-07T07:04:13.801Z,483.75
2019-06-07T07:05:12.190Z,483.75
2019-06-07T07:06:25.237Z,466.88
2019-06-07T07:07:13.154Z,455.62
2019-06-07T07:08:12.152Z,455.62
2019-06-07T07:09:12.188Z,455.62
2019-06-07T07:10:12.146Z,472.50
2019-06-07T07:11:12.131Z,483.75
2019-06-07T07:12:14.831Z,500.62
2019-06-07T07:13:12.101Z,495.00
2019-06-07T07:14:12.185Z,478.12
2019-06-07T07:15:12.109Z,461.25
2019-06-07T07:16:12.066Z,466.88
2019-06-07T07:17:12.051Z,450.00
2019-06-07T07:18:12.059Z,438.75
2019-06-07T07:19:12.052Z,438.75
2019-06-07T07:20:12.042Z,433.12
2019-06-07T07:21:12.038Z,433.12
2019-06-07T07:22:12.050Z,444.38
2019-06-07T07:23:12.020Z,455.62
2019-06-07T07:24:21.502Z,483.75
2019-06-07T07:25:12.990Z,506.25
2019-06-07T07:26:12.024Z,489.38
2019-06-07T07:27:11.969Z,483.75
2019-06-07T07:28:11.950Z,461.25
2019-06-07T07:29:11.955Z,461.25
2019-06-07T07:31:12.897Z,500.62
2019-06-07T07:32:11.931Z,523.12
2019-06-07T07:33:11.891Z,506.25
2019-06-07T07:34:31.782Z,489.38
2019-06-07T07:35:12.871Z,478.12
2019-06-07T07:36:35.322Z,495.00
2019-06-07T07:37:12.849Z,545.62
2019-06-07T07:38:11.837Z,556.88
2019-06-07T07:39:11.821Z,551.25
2019-06-07T07:40:55.740Z,568.12
2019-06-07T07:41:15.477Z,596.25
2019-06-07T07:42:20.699Z,585.00
2019-06-07T07:43:12.771Z,568.12
2019-06-07T07:44:11.811Z,562.50
2019-06-07T07:45:11.771Z,562.50
2019-06-07T07:46:28.533Z,556.88
2019-06-07T07:47:12.727Z,545.62
2019-06-07T07:48:17.770Z,551.25
2019-06-07T07:49:12.753Z,551.25
2019-06-07T07:50:11.712Z,551.25
2019-06-07T07:51:11.681Z,551.25
2019-06-07T07:52:11.661Z,540.00
2019-06-07T07:53:11.660Z,540.00
2019-06-07T07:54:11.650Z,528.75
2019-06-07T07:55:11.831Z,511.88
2019-06-07T07:56:11.671Z,528.75
2019-06-07T07:57:11.621Z,506.25
2019-06-07T07:58:11.660Z,511.88
2019-06-07T07:59:11.588Z,495.00
2019-06-07T08:00:48.605Z,483.75
2019-06-07T08:01:12.559Z,472.50
2019-06-07T08:02:11.579Z,483.75
2019-06-07T08:03:11.616Z,495.00
2019-06-07T08:04:11.591Z,472.50
2019-06-07T08:05:23.247Z,483.75
2019-06-07T08:06:12.510Z,472.50
2019-06-07T08:07:11.566Z,472.50
2019-06-07T08:08:11.599Z,489.38
2019-06-07T08:09:11.526Z,489.38
2019-06-07T08:10:11.485Z,466.88
2019-06-07T08:11:12.863Z,444.38
2019-06-07T08:12:11.482Z,455.62
2019-06-07T08:13:24.941Z,483.75
2019-06-07T08:14:12.449Z,450.00
2019-06-07T08:15:11.457Z,427.50
2019-06-07T08:16:16.086Z,421.88
2019-06-07T08:17:12.436Z,438.75
2019-06-07T08:18:11.479Z,517.50
2019-06-07T08:19:13.077Z,590.62
2019-06-07T08:20:11.490Z,579.38
2019-06-07T08:21:24.610Z,523.12
2019-06-07T08:22:12.348Z,855.00
2019-06-07T08:23:11.338Z,1558.12
2019-06-07T08:24:11.355Z,2728.12
2019-06-07T08:25:11.331Z,2958.75
2019-06-07T08:26:11.375Z,2925.00
2019-06-07T08:27:25.855Z,2840.62
2019-06-07T08:28:12.292Z,3031.88
2019-06-07T08:29:11.260Z,3031.88
2019-06-07T08:30:46.429Z,2885.62
2019-06-07T08:31:12.240Z,2846.25
2019-06-07T08:32:11.268Z,3031.88
2019-06-07T08:33:25.538Z,3015.00
2019-06-07T08:34:12.213Z,2930.62
2019-06-07T08:35:11.234Z,2981.25
2019-06-07T08:36:19.877Z,3020.62
2019-06-07T08:37:12.493Z,3082.50
2019-06-07T08:38:26.041Z,3110.62
2019-06-07T08:39:12.166Z,3133.12
2019-06-07T08:40:11.165Z,3099.38
2019-06-07T08:41:12.633Z,3043.12
2019-06-07T08:42:17.771Z,3048.75
2019-06-07T08:43:20.382Z,3076.88
2019-06-07T08:44:23.211Z,3105.00
2019-06-07T08:45:12.104Z,3116.25
2019-06-07T08:46:11.185Z,3116.25
2019-06-07T08:47:20.095Z,3166.88
2019-06-07T08:48:26.990Z,3099.38
2019-06-07T08:49:12.065Z,2880.00
2019-06-07T08:50:11.044Z,2941.88
2019-06-07T08:51:11.053Z,3155.62
2019-06-07T08:52:12.465Z,3256.88
2019-06-07T08:53:12.315Z,3144.38
2019-06-07T08:54:22.452Z,3110.62
2019-06-07T08:55:11.991Z,3245.62
2019-06-07T08:56:11.747Z,3369.38
2019-06-07T08:57:20.672Z,3352.50
2019-06-07T08:58:12.019Z,3352.50
2019-06-07T08:59:11.736Z,3318.75
2019-06-07T09:00:42.220Z,3285.00
2019-06-07T09:01:11.957Z,3380.62
2019-06-07T09:02:23.370Z,3397.50
2019-06-07T09:03:15.978Z,3307.50
2019-06-07T09:04:11.504Z,3290.62
2019-06-07T09:05:12.522Z,3313.12
2019-06-07T09:06:54.045Z,3324.38
2019-06-07T09:07:19.576Z,3228.75
2019-06-07T09:08:29.065Z,3217.50
2019-06-07T09:09:11.899Z,3369.38
2019-06-07T09:10:14.604Z,3532.50
2019-06-07T09:11:11.601Z,3515.62
2019-06-07T09:12:11.689Z,3408.75
2019-06-07T09:13:11.977Z,3397.50
2019-06-07T09:14:10.839Z,3470.62
2019-06-07T09:15:21.363Z,3470.62
2019-06-07T09:16:11.818Z,3448.12
2019-06-07T09:17:12.478Z,3397.50
2019-06-07T09:18:37.966Z,3408.75
2019-06-07T09:19:11.972Z,3431.25
2019-06-07T09:20:35.153Z,3493.12
2019-06-07T09:21:11.838Z,3498.75
2019-06-07T09:22:11.887Z,3436.88
2019-06-07T09:23:16.651Z,3391.88
2019-06-07T09:24:12.233Z,3335.62
2019-06-07T09:25:20.584Z,3397.50
2019-06-07T09:26:18.246Z,3391.88
2019-06-07T09:27:11.746Z,3453.75
2019-06-07T09:28:19.144Z,3476.25
2019-06-07T09:29:12.238Z,3448.12
2019-06-07T09:30:16.455Z,3465.00
2019-06-07T09:31:12.664Z,3560.62
2019-06-07T09:32:15.970Z,3594.38
2019-06-07T09:33:12.436Z,3555.00
2019-06-07T09:34:14.701Z,3476.25
2019-06-07T09:35:16.826Z,3470.62
2019-06-07T09:36:13.270Z,3510.00
2019-06-07T09:38:03.061Z,3487.50
2019-06-07T09:38:24.326Z,3645.00
2019-06-07T09:39:12.706Z,3330.00
2019-06-07T09:40:24.313Z,3813.75
2019-06-07T09:41:11.571Z,3532.50
2019-06-07T09:42:12.577Z,3633.75
2019-06-07T09:44:23.969Z,1732.50
2019-06-07T09:45:13.961Z,3774.38
2019-06-07T09:46:14.856Z,916.88
2019-06-07T09:47:30.684Z,2053.12
2019-06-07T09:48:15.947Z,2795.62
2019-06-07T09:49:21.214Z,3768.75
2019-06-07T09:50:12.390Z,3650.62
2019-06-07T09:51:19.261Z,3594.38
2019-06-07T09:52:11.480Z,3594.38
2019-06-07T09:53:21.925Z,3650.62
2019-06-07T09:54:17.739Z,3701.25
2019-06-07T09:55:22.990Z,3735.00
2019-06-07T09:56:12.318Z,3667.50
2019-06-07T09:57:16.595Z,3555.00
2019-06-07T09:58:48.622Z,3538.12
2019-06-07T09:59:13.031Z,3588.75
2019-06-07T10:00:36.799Z,3571.88
2019-06-07T10:01:13.670Z,3622.50
2019-06-07T10:02:13.708Z,3583.12
2019-06-07T10:03:20.557Z,3566.25
2019-06-07T10:04:28.196Z,3645.00
2019-06-07T10:05:14.103Z,3695.62
2019-06-07T10:06:13.728Z,3718.12
2019-06-07T10:07:28.603Z,3763.12
2019-06-07T10:08:54.646Z,3740.62
2019-06-07T10:10:09.329Z,3684.38
2019-06-07T10:11:11.362Z,3622.50
2019-06-07T10:12:10.319Z,3718.12
2019-06-07T10:13:10.494Z,3785.62
2019-06-07T10:14:10.221Z,3768.75
2019-06-07T10:15:10.375Z,3808.12
2019-06-07T10:16:10.256Z,2486.25
2019-06-07T10:17:10.259Z,3661.88
2019-06-07T10:18:10.224Z,3369.38
2019-06-07T10:19:10.353Z,1620.00
2019-06-07T10:20:10.356Z,573.75
2019-06-07T10:21:14.756Z,3757.50
2019-06-07T10:22:11.191Z,613.12
2019-06-07T10:23:10.206Z,568.12
2019-06-07T10:24:10.182Z,894.38
2019-06-07T10:25:10.609Z,573.75
2019-06-07T10:26:10.234Z,556.88
2019-06-07T10:27:10.189Z,551.25
2019-06-07T10:28:10.334Z,562.50
2019-06-07T10:29:10.349Z,562.50
2019-06-07T10:30:10.416Z,556.88
2019-06-07T10:31:11.429Z,568.12
2019-06-07T10:32:11.229Z,562.50
2019-06-07T10:33:10.505Z,573.75
2019-06-07T10:34:10.901Z,590.62
2019-06-07T10:35:13.766Z,568.12
2019-06-07T10:36:11.019Z,579.38
2019-06-07T10:37:14.957Z,562.50
2019-06-07T10:38:10.969Z,573.75
2019-06-07T10:39:11.382Z,613.12
2019-06-07T10:40:11.239Z,658.12
2019-06-07T10:41:11.123Z,697.50
2019-06-07T10:42:11.486Z,703.12
2019-06-07T10:43:13.432Z,652.50
2019-06-07T10:44:11.337Z,635.62
2019-06-07T10:45:11.850Z,624.38
2019-06-07T10:46:10.132Z,624.38
2019-06-07T10:47:10.113Z,630.00
2019-06-07T10:48:10.343Z,635.62
2019-06-07T10:49:10.172Z,843.75
2019-06-07T10:50:10.373Z,2306.25
2019-06-07T10:51:13.677Z,3926.25
2019-06-07T10:52:11.487Z,3785.62
2019-06-07T10:53:10.766Z,4038.75
2019-06-07T10:54:21.936Z,3408.75
2019-06-07T10:55:10.915Z,4055.62
2019-06-07T10:56:11.063Z,3926.25
2019-06-07T10:57:13.803Z,4162.50
2019-06-07T10:58:11.199Z,3358.12
2019-06-07T10:59:11.589Z,3510.00
2019-06-07T11:00:11.504Z,3195.00
2019-06-07T11:01:09.751Z,2328.75
2019-06-07T11:02:09.819Z,2115.00
2019-06-07T11:03:09.965Z,2075.62
2019-06-07T11:04:09.719Z,4438.12
2019-06-07T11:05:10.072Z,4466.25
2019-06-07T11:06:10.131Z,1996.88
2019-06-07T11:07:10.131Z,2115.00
2019-06-07T11:08:10.213Z,1912.50
2019-06-07T11:09:10.028Z,2126.25
2019-06-07T11:10:15.610Z,2036.25
2019-06-07T11:11:12.081Z,1935.00
2019-06-07T11:12:10.732Z,2120.62
2019-06-07T11:13:10.413Z,2632.50
2019-06-07T11:14:10.595Z,3144.38
2019-06-07T11:15:10.979Z,2632.50
2019-06-07T11:16:11.092Z,2401.88
2019-06-07T11:17:11.176Z,3369.38
2019-06-07T11:18:10.306Z,3476.25
2019-06-07T11:19:13.896Z,4252.50
2019-06-07T11:20:12.316Z,3920.62
2019-06-07T11:21:10.052Z,3071.25
2019-06-07T11:22:10.167Z,4438.12
2019-06-07T11:23:10.116Z,4038.75
2019-06-07T11:24:10.193Z,4635.00
2019-06-07T11:25:10.846Z,3588.75
2019-06-07T11:26:10.292Z,4348.12
2019-06-07T11:27:11.156Z,4095.00
2019-06-07T11:28:10.586Z,3847.50
2019-06-07T11:29:10.879Z,3645.00
2019-06-07T11:30:10.558Z,3403.12
2019-06-07T11:31:10.787Z,3408.75
2019-06-07T11:32:10.566Z,3605.62
2019-06-07T11:33:12.060Z,3763.12
2019-06-07T11:34:10.441Z,3847.50
2019-06-07T11:35:10.618Z,3870.00
2019-06-07T11:36:10.710Z,3881.25
2019-06-07T11:37:11.050Z,3999.38
2019-06-07T11:38:10.574Z,4128.75
2019-06-07T11:39:10.900Z,4117.50
2019-06-07T11:40:27.865Z,4021.88
2019-06-07T11:41:11.488Z,3920.62
2019-06-07T11:42:09.917Z,3943.12
2019-06-07T11:43:10.658Z,4050.00
2019-06-07T11:44:10.865Z,4134.38
2019-06-07T11:45:10.521Z,4185.00
2019-06-07T11:46:09.412Z,4072.50
2019-06-07T11:47:10.445Z,3937.50
2019-06-07T11:48:09.320Z,3892.50
2019-06-07T11:49:10.875Z,3898.12
2019-06-07T11:50:09.570Z,3948.75
2019-06-07T11:51:10.677Z,3982.50
2019-06-07T11:52:11.421Z,3993.75
2019-06-07T11:53:10.625Z,3948.75
2019-06-07T11:54:09.689Z,3965.62
2019-06-07T11:55:10.966Z,4055.62
2019-06-07T11:56:10.309Z,4106.25
2019-06-07T11:57:09.296Z,4095.00
2019-06-07T11:58:13.174Z,4072.50
2019-06-07T11:59:11.202Z,4016.25
2019-06-07T12:00:09.405Z,3965.62
2019-06-07T12:01:09.608Z,3931.88
2019-06-07T12:02:09.195Z,3909.38
2019-06-07T12:03:09.491Z,3937.50
2019-06-07T12:04:09.551Z,4066.88
2019-06-07T12:05:10.402Z,4179.38
2019-06-07T12:06:09.985Z,4111.88
2019-06-07T12:07:10.843Z,3965.62
2019-06-07T12:08:10.033Z,3937.50
2019-06-07T12:09:10.641Z,3937.50
2019-06-07T12:10:10.598Z,3903.75
2019-06-07T12:11:10.123Z,3836.25
2019-06-07T12:12:10.257Z,3858.75
2019-06-07T12:13:10.368Z,3943.12
2019-06-07T12:14:10.866Z,4033.12
2019-06-07T12:15:09.152Z,4066.88
2019-06-07T12:16:09.166Z,4050.00
2019-06-07T12:17:09.113Z,4061.25
2019-06-07T12:18:09.302Z,4128.75
2019-06-07T12:19:09.640Z,4055.62
2019-06-07T12:20:10.809Z,3971.25
2019-06-07T12:21:09.575Z,3937.50
2019-06-07T12:22:09.854Z,3819.38
2019-06-07T12:23:10.013Z,3780.00
2019-06-07T12:24:10.207Z,3847.50
2019-06-07T12:25:10.173Z,3971.25
2019-06-07T12:26:10.173Z,4016.25
2019-06-07T12:27:10.115Z,4038.75
2019-06-07T12:28:08.940Z,4038.75
2019-06-07T12:29:08.901Z,3993.75
2019-06-07T12:30:17.510Z,3943.12
2019-06-07T12:31:10.847Z,3988.12
2019-06-07T12:32:08.855Z,4089.38
2019-06-07T12:33:08.899Z,4050.00
2019-06-07T12:34:08.823Z,4010.62
2019-06-07T12:35:08.895Z,3999.38
2019-06-07T12:36:08.918Z,4021.88
2019-06-07T12:37:08.830Z,4016.25
2019-06-07T12:38:08.833Z,4010.62
2019-06-07T12:39:08.786Z,3993.75
2019-06-07T12:40:09.118Z,4021.88
2019-06-07T12:41:08.783Z,4016.25
2019-06-07T12:42:08.814Z,3988.12
2019-06-07T12:43:08.883Z,3937.50
2019-06-07T12:44:08.862Z,3982.50
2019-06-07T12:45:08.734Z,4066.88